Aviation Digital Data Service (ADDS)

Output produced by METARs form (0324 UTC 30 May 2017)
found at http://www.aviationweather.gov/adds/metars/
 
TAF SLCO 292200Z 3000/3024 00000KT 9999 BKN015 BKN070 TX28/3020Z TN19 /3010Z 
     BECMG 3012/3015 15005KT BKN017 BKN080 
     TEMPO 3016/3018 7000 VCSH FEW020CB
       
TAF SLCB 292200Z 3000/3024 00000KT 9999 FEW030 BKN080 TX22/3019Z TN11 /3011Z 
     PROB30 
     TEMPO 3010/3012 4000 FU 
     BECMG 3014/3016 29010KT 9999 NSW FEW030
       
TAF SLLP 292200Z 3000/3024 33010KT 7000 RA FEW009 SCT013 FEW017CB BKN070 TX15/3020Z TN03/3010Z 
     BECMG 3004/3006 07005KT 3000E VCFG FEW002 
     TEMPO 3007/3009 6000 RA OVC070 
     BECMG 3012/3015 9999 NSW FEW009 SCT015 BKN070 
     TEMPO 3018/3021 05012KT 8000 VCSH SCT017 FEW020CB
       
TAF SLPS 292215Z 3000/3024 00000KT 9999 BKN013 OVC070 TX21/3019Z TN15 /3010Z 
     BECMG 3013/3015 24005KT SCT015 BKN080 
     BECMG 3022/3024 00000KT
       
TAF SLET 292215Z 3000/3024 17006KT 8000 DZ BKN006 BKN023 OVC070 TX16/ 3019Z TN11/3011Z 
     BECMG 3014/3016 17012KT 9999 NSW SCT008 BKN015 OVC070 
     BECMG 3021/3023 16005KT 
       
TAF SLVR 292215Z 3000/3024 16006KT 8000 DZ BKN006 BKN023 OVC070 TX16/ 3019Z TN11/3011Z 
     BECMG 3014/3016 18012KT 9999 NSW SCT008 BKN015 OVC070 
     BECMG 3021/3023 16005KT
       
TAF SLTJ 291600Z 3000/3024 00000KT 9999 BKN070 TX18/3019Z TN04/3011Z 
     BECMG 3017/3019 14010KT
       
TAF SLTR 292200Z 3000/3024 00000KT 9999 SCT010 OVC070 TX23/3020Z TN16 /3010Z 
     BECMG 3012/3014 15005KT BKN007 OVC080 
     TEMPO 3015/3018 4000 RA
       
TAF SLYA 291600Z 3000/3024 00000KT 9999 SCT020 OVC070 TX14/3011Z TN09 /3011Z 
     TEMPO 3009/3011 5000 DZ BKN005 
     BECMG 3014/3016 21008KT 2000 DZ BKN003 OVC070